Terminal Aerodrome Forecast
Issued by NWS Blacksburg, VA

Home | Current Version | Previous Version | Text Only | Print | Product List | Glossary On
Versions: 1 2 3 4 5 6 7 8 9 10 11 12 13 14 15 16 17 18 19 20 21 22 23 24 25 26 27 28 29 30 31 32 33 34 35 36 37 38 39 40 41 42 43 44 45 46 47 48 49 50
000
FTUS41 KRNK 300525
TAFDAN
TAF
KDAN 300525Z 3006/0106 11005KT P6SM VCSH BKN012 OVC022
      TEMPO 3006/3009 5SM -SHRA BR OVC007
     FM301200 09004KT 4SM BR VCSH SCT005 OVC012
     FM301500 11006KT P6SM BKN013
     FM301900 15005KT P6SM BKN035
     FM010000 VRB03KT P6SM SCT040 BKN100=

USA.gov is the U.S. government's official web portal to all federal, state and local government web resources and services.